Portada
METAR-TAF:

METAR-TAF

Aeropuertos :

Aeropuerto Internacional Shaikh Zayed

Rahim Yar Khan, Pakistán

latitud: 28-23-02N, longitud: 70-16-47E, altitud: 83 m

METAR: falta

Hora: 14:54 (09:54 UTC)

Pronóstico

El informe se hizo hace 6 horas y 9 minutos, a las 03:45 UTC
Pronóstico válido del 27 a las 06 UTC al 27 a las 24 UTC
Viento 10 kt del suroeste
Visibilidad: 5000 m
Escasas nubes a una altura de 12000 ft
calima
A partir de las 27 a las 1500 UTC
Viento 5 kt del sur
Visibilidad: 3500 m
Nubes dispersas a una altura de 12000 ft
humo

TAF: OPRK 270345Z 2706/2724 23010KT 5000 HZ FEW120 TX31/2710Z FM271500 18005KT 3500 FU SCT120

Observaciones y pronósticos meteorológicos de más de 4000 aeropuertos (mensajes METAR y TAF).

Los puntos amarillos y rojos representan las estaciones disponibles.

Ponga el ratón en el punto deseado para ver el nombre de la estación.

Haga clic para ver las observaciones y los pronósticos meteorológicos.

Para cambiar el mapa : haga clic en los botones verdes con una cruz de color negro para hacer un zoom, en el botón verde con un guión para alejar o en las flechas verdes para mapas adyacentes.


METAR-TAF: